Time;durP1;ratioP1;P1;durP2;ratioP2;P2;SDS_P1;SDS_P2;PMS_P1;PMS_P2;Temp;Humidity;BMP_temperature;BMP_pressure;BME280_temperature;BME280_humidity;BME280_pressure;Samples;Min_cycle;Max_cycle;Signal;HPM_P1;HPM_P2
2022/06/05 00:00:58;;;;;;;;;;;19.60;43.90;;;;;;5034700;28;19923;-87
2022/06/05 00:03:30;;;;;;;;;;;19.50;43.90;;;;;;5016701;28;19937;-88
2022/06/05 00:05:58;;;;;;;;;;;19.50;44.00;;;;;;5016107;28;19917;-87
2022/06/05 00:08:43;;;;;;;;;;;19.40;44.10;;;;;;5033279;28;19928;-87
2022/06/05 00:11:10;;;;;;;;;;;19.40;44.00;;;;;;5033038;28;19917;-87
2022/06/05 00:13:44;;;;;;;;;;;19.30;44.00;;;;;;5033398;28;19913;-87
2022/06/05 00:16:11;;;;;;;;;;;19.30;44.00;;;;;;5015483;28;20239;-88
2022/06/05 00:18:37;;;;;;;;;;;19.20;44.10;;;;;;5033446;28;20296;-87
2022/06/05 00:21:03;;;;;;;;;;;19.20;44.50;;;;;;5033123;28;20357;-87
2022/06/05 00:23:30;;;;;;;;;;;19.10;44.80;;;;;;5026216;28;19913;-87
2022/06/05 00:26:14;;;;;;;;;;;19.10;44.80;;;;;;5034290;28;19924;-87
2022/06/05 00:28:54;;;;;;;;;;;19.00;44.70;;;;;;5011815;28;19924;-87
2022/06/05 00:31:19;;;;;;;;;;;18.90;44.70;;;;;;5032273;28;19917;-87
2022/06/05 00:33:47;;;;;;;;;;;18.90;44.70;;;;;;5033894;28;20376;-87
2022/06/05 00:36:13;;;;;;;;;;;18.80;44.70;;;;;;5015950;28;19970;-87
2022/06/05 00:38:53;;;;;;;;;;;18.70;44.70;;;;;;5036199;28;19921;-87
2022/06/05 00:41:41;;;;;;;;;;;18.70;44.70;;;;;;5036806;28;20346;-87
2022/06/05 00:44:09;;;;;;;;;;;18.60;45.10;;;;;;5037512;28;20341;-87
2022/06/05 00:46:37;;;;;;;;;;;18.60;45.20;;;;;;5015006;28;19943;-87
2022/06/05 00:49:03;;;;;;;;;;;18.50;45.40;;;;;;5018421;28;19991;-87
2022/06/05 00:51:28;;;;;;;;;;;18.60;45.40;;;;;;5014066;28;19945;-87
2022/06/05 00:53:54;;;;;;;;;;;18.60;45.40;;;;;;5014766;28;19924;-87
2022/06/05 00:56:19;;;;;;;;;;;18.50;45.30;;;;;;5036890;28;19999;-87
2022/06/05 00:58:45;;;;;;;;;;;18.50;45.30;;;;;;5019173;28;19917;-87
2022/06/05 01:01:10;;;;;;;;;;;18.50;45.20;;;;;;5020032;28;20275;-88
2022/06/05 01:03:36;;;;;;;;;;;18.40;45.20;;;;;;5036843;28;19909;-87
2022/06/05 01:06:02;;;;;;;;;;;18.30;45.20;;;;;;5036701;28;19918;-87
2022/06/05 01:08:27;;;;;;;;;;;18.30;45.50;;;;;;5037235;28;19936;-87
2022/06/05 01:10:59;;;;;;;;;;;18.30;45.40;;;;;;5037329;28;20349;-87
2022/06/05 01:13:24;;;;;;;;;;;18.20;45.60;;;;;;5019101;28;20415;-87
2022/06/05 01:15:50;;;;;;;;;;;18.20;45.70;;;;;;5019039;28;19917;-86
2022/06/05 01:18:30;;;;;;;;;;;18.10;45.80;;;;;;5036966;28;19924;-87
2022/06/05 01:21:03;;;;;;;;;;;18.00;46.00;;;;;;5037141;28;19921;-87
2022/06/05 01:23:44;;;;;;;;;;;18.00;46.00;;;;;;5018711;28;19913;-87
2022/06/05 01:26:15;;;;;;;;;;;17.90;46.10;;;;;;5019362;28;19971;-87
2022/06/05 01:28:52;;;;;;;;;;;17.90;46.20;;;;;;5036446;28;19913;-87
2022/06/05 01:31:44;;;;;;;;;;;17.80;46.20;;;;;;5019771;28;19924;-87
2022/06/05 01:34:12;;;;;;;;;;;17.80;46.40;;;;;;5016489;28;19955;-86
2022/06/05 01:36:45;;;;;;;;;;;17.70;46.70;;;;;;5019857;28;20289;-87
2022/06/05 01:39:13;;;;;;;;;;;17.70;46.50;;;;;;5037848;28;20369;-86
2022/06/05 01:41:41;;;;;;;;;;;17.60;46.50;;;;;;5019757;28;19913;-86
2022/06/05 01:44:10;;;;;;;;;;;17.60;46.70;;;;;;5035853;28;19956;-86
2022/06/05 01:46:36;;;;;;;;;;;17.50;46.70;;;;;;5019396;28;20369;-86
2022/06/05 01:49:17;;;;;;;;;;;17.50;47.00;;;;;;5036673;28;19936;-86
2022/06/05 01:51:50;;;;;;;;;;;17.50;46.90;;;;;;5019058;28;19917;-86
2022/06/05 01:54:18;;;;;;;;;;;17.40;46.80;;;;;;5003179;28;19917;-86
2022/06/05 01:56:46;;;;;;;;;;;17.30;47.00;;;;;;5005609;28;20257;-86
2022/06/05 01:59:18;;;;;;;;;;;17.30;47.00;;;;;;5034483;28;19968;-86
2022/06/05 02:01:47;;;;;;;;;;;17.30;47.00;;;;;;5032675;28;19983;-86
2022/06/05 02:04:15;;;;;;;;;;;17.30;47.10;;;;;;5035731;28;20007;-86
2022/06/05 02:06:48;;;;;;;;;;;17.20;47.10;;;;;;5030098;28;20269;-86
2022/06/05 02:09:21;;;;;;;;;;;17.20;47.10;;;;;;5004078;28;19917;-86
2022/06/05 02:11:47;;;;;;;;;;;17.20;47.20;;;;;;5012168;28;19924;-87
2022/06/05 02:14:13;;;;;;;;;;;17.10;47.30;;;;;;5033791;28;19917;-86
2022/06/05 02:16:39;;;;;;;;;;;17.10;47.40;;;;;;5017788;28;20058;-86
2022/06/05 02:19:08;;;;;;;;;;;17.10;47.40;;;;;;5035688;28;20004;-87
2022/06/05 02:21:37;;;;;;;;;;;17.10;47.40;;;;;;5036147;28;19913;-87
2022/06/05 02:24:03;;;;;;;;;;;17.00;47.50;;;;;;5017891;28;20133;-86
2022/06/05 02:26:29;;;;;;;;;;;17.00;47.50;;;;;;5018016;28;20396;-87
2022/06/05 02:28:56;;;;;;;;;;;17.00;47.70;;;;;;5009806;28;19913;-87
2022/06/05 02:31:34;;;;;;;;;;;16.90;48.00;;;;;;5015776;28;20019;-87
2022/06/05 02:34:18;;;;;;;;;;;17.00;47.90;;;;;;5035409;28;19913;-88
2022/06/05 02:36:43;;;;;;;;;;;16.90;47.90;;;;;;5035060;28;19967;-87
2022/06/05 02:39:23;;;;;;;;;;;16.80;48.20;;;;;;5017885;28;19922;-87
2022/06/05 02:42:10;;;;;;;;;;;16.80;48.50;;;;;;5017590;28;19913;-87
2022/06/05 02:44:38;;;;;;;;;;;16.80;48.60;;;;;;5018297;28;20004;-87
2022/06/05 02:47:04;;;;;;;;;;;16.80;48.60;;;;;;5034804;28;19920;-87
2022/06/05 02:49:42;;;;;;;;;;;16.80;48.50;;;;;;5018431;28;19917;-87
2022/06/05 02:52:08;;;;;;;;;;;16.80;49.10;;;;;;5032619;28;19963;-87
2022/06/05 02:54:38;;;;;;;;;;;16.70;48.90;;;;;;5034821;28;19917;-87
2022/06/05 02:57:03;;;;;;;;;;;16.70;48.80;;;;;;5035339;28;19959;-87
2022/06/05 02:59:29;;;;;;;;;;;16.70;48.80;;;;;;5035256;28;20285;-87
2022/06/05 03:04:38;;;;;;;;;;;16.70;48.80;;;;;;5029669;28;19928;-88
2022/06/05 03:07:05;;;;;;;;;;;16.70;48.90;;;;;;5036261;28;19913;-88
2022/06/05 03:09:30;;;;;;;;;;;16.70;48.90;;;;;;5015232;28;19917;-88
2022/06/05 03:11:56;;;;;;;;;;;16.70;48.80;;;;;;5032628;28;20047;-88
2022/06/05 03:14:21;;;;;;;;;;;16.70;48.90;;;;;;5017911;28;19917;-88
2022/06/05 03:16:47;;;;;;;;;;;16.70;48.90;;;;;;5035868;28;20001;-88
2022/06/05 03:19:13;;;;;;;;;;;16.70;48.90;;;;;;5035925;28;19932;-88
2022/06/05 03:21:38;;;;;;;;;;;16.70;49.20;;;;;;5018193;28;19919;-88
2022/06/05 03:24:05;;;;;;;;;;;16.70;49.40;;;;;;5017064;28;19935;-87
2022/06/05 03:26:30;;;;;;;;;;;16.70;49.70;;;;;;5023646;28;20000;-88
2022/06/05 03:28:56;;;;;;;;;;;16.80;50.00;;;;;;5027663;28;19946;-88
2022/06/05 03:31:21;;;;;;;;;;;17.00;50.40;;;;;;5017406;28;19913;-88
2022/06/05 03:33:47;;;;;;;;;;;17.10;50.70;;;;;;5033719;28;19917;-87
2022/06/05 03:36:13;;;;;;;;;;;17.30;50.90;;;;;;5015555;28;19990;-88
2022/06/05 03:38:39;;;;;;;;;;;17.50;51.10;;;;;;5013028;28;20413;-89
2022/06/05 03:41:05;;;;;;;;;;;17.70;51.10;;;;;;5021955;28;19917;-88
2022/06/05 03:43:31;;;;;;;;;;;18.00;51.30;;;;;;5035102;28;20325;-88
2022/06/05 03:46:04;;;;;;;;;;;18.20;51.40;;;;;;5033992;28;20044;-88
2022/06/05 03:48:29;;;;;;;;;;;18.50;51.30;;;;;;5026801;28;20395;-88
2022/06/05 03:50:55;;;;;;;;;;;18.80;51.30;;;;;;5008408;28;19953;-88
2022/06/05 03:53:20;;;;;;;;;;;19.10;51.20;;;;;;5015255;28;20357;-88
2022/06/05 03:55:45;;;;;;;;;;;19.40;51.10;;;;;;5033967;28;19956;-88
2022/06/05 03:58:11;;;;;;;;;;;19.70;51.10;;;;;;5016066;28;19925;-88
2022/06/05 04:00:36;;;;;;;;;;;20.10;51.00;;;;;;5034897;28;20289;-88
2022/06/05 04:03:02;;;;;;;;;;;20.50;50.70;;;;;;5033840;28;19928;-88
2022/06/05 04:05:27;;;;;;;;;;;20.80;50.20;;;;;;5033969;28;19914;-88
2022/06/05 04:07:53;;;;;;;;;;;21.20;49.80;;;;;;5033476;28;19917;-88
2022/06/05 04:10:19;;;;;;;;;;;21.50;49.60;;;;;;5016526;28;19955;-87
2022/06/05 04:12:46;;;;;;;;;;;22.00;49.20;;;;;;5035899;28;19924;-87
2022/06/05 04:15:12;;;;;;;;;;;22.30;48.70;;;;;;5016512;28;19921;-87
2022/06/05 04:17:37;;;;;;;;;;;22.70;48.00;;;;;;5037148;28;20011;-87
2022/06/05 04:20:04;;;;;;;;;;;23.10;47.50;;;;;;5038242;28;20432;-87
2022/06/05 04:22:29;;;;;;;;;;;23.50;47.30;;;;;;5037760;28;20021;-87
2022/06/05 04:24:55;;;;;;;;;;;23.90;46.80;;;;;;5017077;28;19953;-87
2022/06/05 04:27:20;;;;;;;;;;;24.30;46.50;;;;;;5003084;28;19979;-87
2022/06/05 04:29:46;;;;;;;;;;;24.70;46.10;;;;;;5037814;28;20007;-88
2022/06/05 04:32:11;;;;;;;;;;;25.20;45.50;;;;;;5037259;28;20254;-88
2022/06/05 04:34:37;;;;;;;;;;;25.50;44.60;;;;;;5036266;28;19936;-88
2022/06/05 04:37:03;;;;;;;;;;;25.80;43.90;;;;;;5037232;28;19921;-88
2022/06/05 04:39:28;;;;;;;;;;;26.00;43.50;;;;;;5018859;28;19925;-88
2022/06/05 04:41:53;;;;;;;;;;;26.30;42.70;;;;;;5019152;28;19918;-88
2022/06/05 04:44:19;;;;;;;;;;;26.50;42.10;;;;;;5036336;28;19913;-87
2022/06/05 04:46:44;;;;;;;;;;;26.70;41.50;;;;;;5019468;28;19945;-88
2022/06/05 04:49:13;;;;;;;;;;;26.90;41.10;;;;;;5036685;28;19920;-88
2022/06/05 04:51:39;;;;;;;;;;;27.00;40.40;;;;;;5013328;28;19922;-88
2022/06/05 04:54:05;;;;;;;;;;;27.10;39.70;;;;;;5032949;28;19917;-87
2022/06/05 04:56:32;;;;;;;;;;;27.20;39.40;;;;;;5007472;28;19956;-87
2022/06/05 04:58:58;;;;;;;;;;;27.20;39.40;;;;;;5036601;28;19975;-87
2022/06/05 05:01:25;;;;;;;;;;;27.20;39.20;;;;;;5036661;28;19917;-87
2022/06/05 05:03:52;;;;;;;;;;;27.20;38.70;;;;;;5012998;28;19951;-87
2022/06/05 05:06:17;;;;;;;;;;;27.30;38.40;;;;;;5034966;28;19925;-88
2022/06/05 05:08:43;;;;;;;;;;;27.30;38.30;;;;;;5035755;28;20349;-87
2022/06/05 05:11:08;;;;;;;;;;;27.50;38.50;;;;;;5035956;28;19913;-87
2022/06/05 05:13:34;;;;;;;;;;;27.70;38.50;;;;;;5036759;28;19913;-87
2022/06/05 05:15:59;;;;;;;;;;;27.80;38.40;;;;;;5036236;28;19940;-87
2022/06/05 05:18:25;;;;;;;;;;;28.00;38.20;;;;;;5018836;28;19984;-87
2022/06/05 05:20:51;;;;;;;;;;;28.30;37.50;;;;;;5035664;28;19913;-87
2022/06/05 05:23:19;;;;;;;;;;;28.40;37.10;;;;;;5035603;28;20316;-87
2022/06/05 05:25:46;;;;;;;;;;;28.60;36.80;;;;;;5036974;28;19920;-88
2022/06/05 05:28:11;;;;;;;;;;;28.70;36.50;;;;;;5010705;28;19949;-87
2022/06/05 05:30:43;;;;;;;;;;;28.80;35.90;;;;;;5037274;28;20294;-87
2022/06/05 05:33:14;;;;;;;;;;;28.90;35.10;;;;;;5012618;28;20049;-87
2022/06/05 05:35:40;;;;;;;;;;;29.00;35.10;;;;;;5018506;28;20062;-88
2022/06/05 05:38:05;;;;;;;;;;;29.10;35.00;;;;;;5035253;28;19963;-88
2022/06/05 05:43:14;;;;;;;;;;;29.30;34.60;;;;;;5036579;28;19979;-88
2022/06/05 05:45:40;;;;;;;;;;;29.50;34.70;;;;;;5015813;28;19914;-87
2022/06/05 05:48:05;;;;;;;;;;;29.80;34.50;;;;;;5007056;28;20021;-88
2022/06/05 05:50:31;;;;;;;;;;;30.10;34.40;;;;;;5035996;28;19921;-87
2022/06/05 05:52:56;;;;;;;;;;;30.40;34.20;;;;;;5035957;28;19924;-88
2022/06/05 05:55:22;;;;;;;;;;;30.60;33.50;;;;;;5014821;28;19940;-88
2022/06/05 05:57:47;;;;;;;;;;;30.70;32.50;;;;;;5016008;28;20334;-89
2022/06/05 06:00:14;;;;;;;;;;;30.80;32.30;;;;;;5033744;28;19929;-89
2022/06/05 06:02:42;;;;;;;;;;;30.80;32.00;;;;;;5032462;28;19917;-89
2022/06/05 06:05:08;;;;;;;;;;;31.00;31.70;;;;;;5035585;28;19913;-87
2022/06/05 06:07:34;;;;;;;;;;;31.10;31.80;;;;;;5035091;28;19920;-86
2022/06/05 06:09:59;;;;;;;;;;;31.30;31.90;;;;;;5034883;28;19921;-87
2022/06/05 06:12:25;;;;;;;;;;;31.60;31.70;;;;;;5003870;28;19929;-87
2022/06/05 06:14:51;;;;;;;;;;;31.90;31.30;;;;;;5034273;28;19979;-88
2022/06/05 06:17:17;;;;;;;;;;;32.20;31.10;;;;;;5003150;28;19924;-87
2022/06/05 06:19:43;;;;;;;;;;;32.30;30.70;;;;;;5017114;28;19925;-87
2022/06/05 06:22:08;;;;;;;;;;;32.70;30.50;;;;;;5017605;28;19917;-88
2022/06/05 06:24:34;;;;;;;;;;;33.00;30.30;;;;;;5017937;28;19940;-88
2022/06/05 06:26:59;;;;;;;;;;;33.30;29.80;;;;;;5037266;28;20332;-88
2022/06/05 06:29:25;;;;;;;;;;;33.50;29.20;;;;;;5026819;28;19913;-89
2022/06/05 06:31:51;;;;;;;;;;;33.70;28.60;;;;;;5020802;28;19917;-88
2022/06/05 06:34:17;;;;;;;;;;;33.80;28.50;;;;;;5037188;28;20285;-88
2022/06/05 06:36:42;;;;;;;;;;;34.00;27.90;;;;;;5017903;28;19921;-88
2022/06/05 06:39:08;;;;;;;;;;;33.90;27.40;;;;;;5036680;28;19926;-87
2022/06/05 06:41:34;;;;;;;;;;;33.90;27.40;;;;;;5037163;28;19917;-88
2022/06/05 06:44:01;;;;;;;;;;;34.00;27.40;;;;;;5018737;28;19920;-89
2022/06/05 06:46:27;;;;;;;;;;;34.10;27.60;;;;;;5018552;28;20361;-88
2022/06/05 06:48:52;;;;;;;;;;;34.30;27.80;;;;;;5037470;28;19917;-88
2022/06/05 06:51:17;;;;;;;;;;;34.60;27.40;;;;;;5019752;28;20320;-89
2022/06/05 06:53:43;;;;;;;;;;;34.80;27.40;;;;;;5037912;28;20388;-88
2022/06/05 06:56:13;;;;;;;;;;;34.90;27.00;;;;;;5003175;28;20004;-87
2022/06/05 06:58:42;;;;;;;;;;;35.10;26.50;;;;;;5037014;28;20393;-89
2022/06/05 07:01:07;;;;;;;;;;;35.20;25.80;;;;;;5029284;28;19917;-87
2022/06/05 07:03:34;;;;;;;;;;;35.10;25.60;;;;;;5026432;28;19917;-88
2022/06/05 07:06:03;;;;;;;;;;;35.00;25.10;;;;;;5017489;28;19991;-88
2022/06/05 07:08:29;;;;;;;;;;;34.80;25.30;;;;;;5026496;28;20383;-88
2022/06/05 07:10:54;;;;;;;;;;;34.80;25.30;;;;;;5024536;28;19913;-89
2022/06/05 07:13:20;;;;;;;;;;;34.70;25.40;;;;;;5023093;28;19917;-88
2022/06/05 07:15:46;;;;;;;;;;;34.70;25.50;;;;;;5036278;28;19914;-88
2022/06/05 07:18:11;;;;;;;;;;;34.70;25.50;;;;;;5013860;28;20287;-87
2022/06/05 07:20:39;;;;;;;;;;;34.60;25.60;;;;;;5019821;28;19921;-88
2022/06/05 07:23:05;;;;;;;;;;;34.60;25.60;;;;;;5022264;28;19917;-88
2022/06/05 07:25:31;;;;;;;;;;;34.60;25.60;;;;;;5015072;28;19921;-88
2022/06/05 07:27:57;;;;;;;;;;;34.60;25.90;;;;;;5020550;28;19917;-88
2022/06/05 07:30:32;;;;;;;;;;;34.70;26.20;;;;;;5038724;28;19917;-89
2022/06/05 07:32:57;;;;;;;;;;;35.00;26.30;;;;;;5037900;28;19920;-87
2022/06/05 07:35:23;;;;;;;;;;;35.30;25.70;;;;;;5021666;28;20281;-88
2022/06/05 07:37:49;;;;;;;;;;;35.50;25.50;;;;;;5021566;28;19932;-88
2022/06/05 07:40:15;;;;;;;;;;;35.70;25.60;;;;;;5032124;28;19957;-88
2022/06/05 07:42:41;;;;;;;;;;;35.80;25.20;;;;;;5019442;28;19917;-88
2022/06/05 07:45:07;;;;;;;;;;;35.80;25.30;;;;;;5004642;28;20004;-88
2022/06/05 07:47:33;;;;;;;;;;;36.00;25.30;;;;;;5012602;28;19968;-88
2022/06/05 07:49:58;;;;;;;;;;;36.00;24.90;;;;;;5012952;28;19967;-88
2022/06/05 07:55:09;;;;;;;;;;;35.90;24.80;;;;;;5021006;28;19936;-88
2022/06/05 07:57:34;;;;;;;;;;;35.80;25.20;;;;;;5019981;28;19918;-88
2022/06/05 08:00:21;;;;;;;;;;;35.70;25.30;;;;;;5017629;28;20012;-86
2022/06/05 08:02:48;;;;;;;;;;;35.60;25.50;;;;;;4982206;28;19990;-88
2022/06/05 08:05:13;;;;;;;;;;;35.60;25.70;;;;;;4979415;28;19984;-88
2022/06/05 08:07:38;;;;;;;;;;;35.50;25.60;;;;;;4993397;28;19914;-87
2022/06/05 08:10:05;;;;;;;;;;;35.30;25.60;;;;;;4993530;28;19945;-88
2022/06/05 08:12:31;;;;;;;;;;;35.30;26.10;;;;;;4994431;28;19914;-88
2022/06/05 08:14:57;;;;;;;;;;;35.20;26.20;;;;;;4977537;28;19914;-88
2022/06/05 08:17:27;;;;;;;;;;;35.20;26.50;;;;;;4993456;28;19925;-88
2022/06/05 08:19:53;;;;;;;;;;;35.20;26.50;;;;;;4964575;28;20325;-88
2022/06/05 08:22:21;;;;;;;;;;;35.20;26.60;;;;;;4958766;28;19915;-88
2022/06/05 08:24:46;;;;;;;;;;;35.20;26.20;;;;;;4979246;28;20028;-88
2022/06/05 08:27:13;;;;;;;;;;;35.20;26.40;;;;;;4988275;28;19945;-88
2022/06/05 08:29:39;;;;;;;;;;;35.30;26.50;;;;;;4983391;28;19918;-89
2022/06/05 08:32:05;;;;;;;;;;;35.30;26.20;;;;;;4968718;28;20461;-88
2022/06/05 08:34:31;;;;;;;;;;;35.20;26.30;;;;;;4974378;28;19925;-87
2022/06/05 08:42:35;;;;;;;;;;;34.90;26.40;;;;;;4980021;28;19921;-88
2022/06/05 08:45:11;;;;;;;;;;;35.00;26.60;;;;;;4977195;28;19953;-87
2022/06/05 08:47:48;;;;;;;;;;;35.20;26.40;;;;;;5005856;28;19910;-88
2022/06/05 08:50:14;;;;;;;;;;;35.40;26.50;;;;;;5004784;28;19917;-88
2022/06/05 08:52:39;;;;;;;;;;;35.60;26.30;;;;;;5001503;28;19949;-89
2022/06/05 08:55:10;;;;;;;;;;;35.90;26.10;;;;;;5006484;28;19917;-88
2022/06/05 08:57:39;;;;;;;;;;;36.20;25.80;;;;;;5021209;28;19913;-88
2022/06/05 09:00:05;;;;;;;;;;;36.30;25.20;;;;;;5011416;28;20362;-88
2022/06/05 09:02:34;;;;;;;;;;;36.50;25.10;;;;;;5008854;28;19909;-87
2022/06/05 09:05:02;;;;;;;;;;;36.70;25.30;;;;;;5027800;28;19932;-88
2022/06/05 09:07:31;;;;;;;;;;;36.90;24.70;;;;;;5028734;28;19952;-88
2022/06/05 09:09:56;;;;;;;;;;;37.10;24.90;;;;;;5011810;28;19918;-89
2022/06/05 09:12:25;;;;;;;;;;;37.20;24.40;;;;;;5010517;28;19916;-88
2022/06/05 09:15:09;;;;;;;;;;;37.30;24.30;;;;;;5019814;28;20424;-89
2022/06/05 09:17:35;;;;;;;;;;;37.30;24.20;;;;;;5004911;28;19913;-88
2022/06/05 09:20:01;;;;;;;;;;;37.30;24.40;;;;;;5019765;28;20300;-88
2022/06/05 09:22:32;;;;;;;;;;;37.30;24.40;;;;;;5017001;28;20008;-88
2022/06/05 09:25:01;;;;;;;;;;;37.10;24.60;;;;;;5017255;28;19918;-87
2022/06/05 09:27:38;;;;;;;;;;;37.10;24.80;;;;;;5019745;28;20368;-87
2022/06/05 09:30:07;;;;;;;;;;;37.10;24.80;;;;;;5025442;28;19970;-89
2022/06/05 09:32:38;;;;;;;;;;;37.10;24.90;;;;;;5009215;28;19941;-88
2022/06/05 09:35:10;;;;;;;;;;;37.30;24.80;;;;;;5027564;28;19971;-89
2022/06/05 09:37:42;;;;;;;;;;;37.70;24.30;;;;;;5021218;28;19913;-87
2022/06/05 09:40:14;;;;;;;;;;;38.10;24.10;;;;;;5032933;28;19952;-89
2022/06/05 09:42:53;;;;;;;;;;;38.50;23.50;;;;;;5034674;28;19917;-88
2022/06/05 09:45:37;;;;;;;;;;;38.70;23.40;;;;;;5011720;28;19913;-88
2022/06/05 09:48:02;;;;;;;;;;;39.00;23.20;;;;;;5020573;28;19921;-89
2022/06/05 09:50:28;;;;;;;;;;;39.50;22.30;;;;;;5025355;28;20119;-90
2022/06/05 09:52:55;;;;;;;;;;;39.60;22.00;;;;;;4997492;28;19921;-89
2022/06/05 09:55:27;;;;;;;;;;;39.60;21.80;;;;;;5007830;28;19997;-88
2022/06/05 10:00:48;;;;;;;;;;;39.30;21.80;;;;;;5033089;28;19932;-88
2022/06/05 10:03:15;;;;;;;;;;;39.30;21.80;;;;;;5017543;28;19924;-87
2022/06/05 10:05:45;;;;;;;;;;;39.50;21.70;;;;;;5035602;28;19939;-89
2022/06/05 10:08:19;;;;;;;;;;;39.30;21.40;;;;;;5015390;28;19923;-88
2022/06/05 10:10:46;;;;;;;;;;;39.00;21.80;;;;;;5031828;28;19917;-88
2022/06/05 10:13:30;;;;;;;;;;;39.10;22.30;;;;;;5017627;28;20425;-88
2022/06/05 10:15:58;;;;;;;;;;;39.10;21.90;;;;;;5015968;28;19928;-89
2022/06/05 10:18:30;;;;;;;;;;;38.50;22.10;;;;;;5034247;28;19936;-88
2022/06/05 10:21:01;;;;;;;;;;;38.10;22.40;;;;;;5017149;28;20012;-89
2022/06/05 10:23:35;;;;;;;;;;;37.80;22.90;;;;;;5018084;28;19917;-88
2022/06/05 10:26:07;;;;;;;;;;;37.40;23.20;;;;;;5017403;28;19925;-88
2022/06/05 10:28:38;;;;;;;;;;;37.20;23.70;;;;;;5018046;28;19928;-89
2022/06/05 10:31:27;;;;;;;;;;;37.00;24.20;;;;;;5017365;28;19917;-89
2022/06/05 10:34:11;;;;;;;;;;;36.80;24.60;;;;;;5005661;28;20372;-88
2022/06/05 10:36:53;;;;;;;;;;;36.80;24.70;;;;;;5015444;28;19944;-88
2022/06/05 10:39:22;;;;;;;;;;;36.80;24.80;;;;;;5016258;28;19921;-88
2022/06/05 10:41:53;;;;;;;;;;;36.60;24.70;;;;;;5034017;28;20324;-88
2022/06/05 10:44:38;;;;;;;;;;;36.30;24.80;;;;;;5033892;28;19924;-87
2022/06/05 10:47:17;;;;;;;;;;;36.10;25.20;;;;;;5015796;28;20372;-87
2022/06/05 10:49:48;;;;;;;;;;;35.80;25.50;;;;;;5015500;28;19913;-88
2022/06/05 10:52:13;;;;;;;;;;;35.70;25.50;;;;;;5033587;28;20602;-88
2022/06/05 10:54:47;;;;;;;;;;;35.60;25.70;;;;;;5014822;28;19963;-88
2022/06/05 10:57:19;;;;;;;;;;;35.40;25.90;;;;;;5017979;28;19925;-88
2022/06/05 10:59:44;;;;;;;;;;;35.10;26.10;;;;;;5034643;28;19932;-88
2022/06/05 11:02:12;;;;;;;;;;;34.70;26.40;;;;;;5035835;28;19901;-88
2022/06/05 11:04:45;;;;;;;;;;;34.30;26.70;;;;;;5017356;28;19920;-87
2022/06/05 11:07:37;;;;;;;;;;;34.10;27.10;;;;;;5031017;28;19921;-86
2022/06/05 11:10:22;;;;;;;;;;;33.90;27.50;;;;;;5013338;28;19959;-88
2022/06/05 11:16:19;;;;;;;;;;;33.80;28.10;;;;;;4972008;28;19957;-89
2022/06/05 11:19:13;;;;;;;;;;;33.70;28.30;;;;;;4953143;28;20621;-88
2022/06/05 11:21:41;;;;;;;;;;;33.50;28.60;;;;;;4984854;28;20004;-88
2022/06/05 11:24:09;;;;;;;;;;;33.50;29.00;;;;;;5001042;28;20270;-88
2022/06/05 11:26:35;;;;;;;;;;;33.40;29.10;;;;;;5012993;28;19920;-87
2022/06/05 11:29:19;;;;;;;;;;;33.30;29.80;;;;;;5016576;28;20003;-90
2022/06/05 11:32:03;;;;;;;;;;;33.10;32.60;;;;;;5022196;28;19979;-89
2022/06/05 11:34:47;;;;;;;;;;;32.50;33.70;;;;;;5025322;28;19917;-89
2022/06/05 11:37:18;;;;;;;;;;;32.30;33.80;;;;;;5033984;28;20444;-88
2022/06/05 11:39:44;;;;;;;;;;;32.10;34.60;;;;;;5016752;28;19928;-91
2022/06/05 11:42:24;;;;;;;;;;;31.80;34.30;;;;;;5014369;28;19917;-88
2022/06/05 11:44:52;;;;;;;;;;;31.80;33.80;;;;;;5033205;28;19943;-87
2022/06/05 11:47:29;;;;;;;;;;;31.60;33.40;;;;;;5017225;28;19917;-87
2022/06/05 11:50:06;;;;;;;;;;;31.70;33.30;;;;;;5025665;28;19917;-87
2022/06/05 11:52:36;;;;;;;;;;;31.80;33.20;;;;;;5028962;28;19913;-87
2022/06/05 11:55:05;;;;;;;;;;;31.80;33.20;;;;;;5013140;28;19953;-88
2022/06/05 11:57:55;;;;;;;;;;;31.70;33.10;;;;;;5031208;28;19913;-88
2022/06/05 12:00:29;;;;;;;;;;;31.70;33.10;;;;;;5020721;28;20379;-87
2022/06/05 12:03:07;;;;;;;;;;;31.70;33.10;;;;;;5027784;28;19924;-88
2022/06/05 12:05:52;;;;;;;;;;;31.60;33.10;;;;;;5016418;28;19933;-88
2022/06/05 12:08:38;;;;;;;;;;;31.70;33.20;;;;;;5024226;28;20289;-88
2022/06/05 12:11:08;;;;;;;;;;;31.60;33.50;;;;;;5021342;28;20048;-88
2022/06/05 12:13:33;;;;;;;;;;;31.50;34.20;;;;;;5015519;28;19917;-88
2022/06/05 12:16:02;;;;;;;;;;;31.40;34.70;;;;;;5015026;28;19924;-88
2022/06/05 12:18:47;;;;;;;;;;;;;;;;;;;;;
2022/06/05 12:21:37;;;;;;;;;;;31.10;35.40;;;;;;5027836;28;20000;-90
2022/06/05 12:24:26;;;;;;;;;;;30.90;35.70;;;;;;5013949;28;19918;-89
2022/06/05 12:27:21;;;;;;;;;;;30.80;35.90;;;;;;5028729;28;19917;-87
2022/06/05 12:30:00;;;;;;;;;;;30.70;36.30;;;;;;5004960;28;19952;-88
2022/06/05 12:32:37;;;;;;;;;;;30.60;36.70;;;;;;5033096;28;19975;-89
2022/06/05 12:35:06;;;;;;;;;;;30.50;37.40;;;;;;5026675;28;19920;-88
2022/06/05 12:37:40;;;;;;;;;;;30.30;38.30;;;;;;5055074;28;19917;-89
2022/06/05 12:40:13;;;;;;;;;;;30.10;39.00;;;;;;5035165;28;19999;-91
2022/06/05 12:42:54;;;;;;;;;;;29.90;40.40;;;;;;5039111;28;20331;-89
2022/06/05 12:45:30;;;;;;;;;;;29.80;41.10;;;;;;5036934;28;19912;-89
2022/06/05 12:48:24;;;;;;;;;;;29.40;41.90;;;;;;5034449;28;19931;-89
2022/06/05 12:51:13;;;;;;;;;;;29.10;43.30;;;;;;5033189;28;19919;-89
2022/06/05 12:53:42;;;;;;;;;;;28.80;45.30;;;;;;5049828;28;19917;-90
2022/06/05 12:56:33;;;;;;;;;;;28.50;49.30;;;;;;5050125;28;19913;-90
2022/06/05 12:58:59;;;;;;;;;;;28.30;51.90;;;;;;5035948;28;19951;-91
2022/06/05 13:01:44;;;;;;;;;;;28.00;54.70;;;;;;5023811;28;19913;-92
2022/06/05 13:04:31;;;;;;;;;;;27.80;55.30;;;;;;4995423;28;19918;-92
2022/06/05 13:07:20;;;;;;;;;;;27.70;56.70;;;;;;5001337;28;19925;-92
2022/06/05 13:09:50;;;;;;;;;;;27.40;57.80;;;;;;5037871;28;19912;-92
2022/06/05 13:12:22;;;;;;;;;;;27.10;58.40;;;;;;5036560;28;19971;-92
2022/06/05 13:15:12;;;;;;;;;;;26.80;57.60;;;;;;5054556;28;21464;-91
2022/06/05 13:17:55;;;;;;;;;;;26.50;57.30;;;;;;5032018;28;20004;-90
2022/06/05 13:20:33;;;;;;;;;;;26.10;58.80;;;;;;5038024;28;19920;-92
2022/06/05 13:23:07;;;;;;;;;;;25.80;59.60;;;;;;5039266;28;19952;-92
2022/06/05 13:25:59;;;;;;;;;;;25.60;60.20;;;;;;5034721;28;19917;-91
2022/06/05 13:28:28;;;;;;;;;;;25.50;60.90;;;;;;5034152;28;19916;-91
2022/06/05 13:31:29;;;;;;;;;;;;;;;;;;;;;
2022/06/05 13:34:16;;;;;;;;;;;25.30;62.30;;;;;;5050013;28;19917;-91
2022/06/05 13:37:04;;;;;;;;;;;25.30;62.90;;;;;;5051964;28;20014;-92
2022/06/05 13:39:59;;;;;;;;;;;25.30;63.20;;;;;;5034949;28;19936;-93
2022/06/05 13:42:31;;;;;;;;;;;25.30;63.10;;;;;;5052296;28;19913;-92
2022/06/05 13:45:06;;;;;;;;;;;25.30;63.30;;;;;;5025474;28;19996;-92
2022/06/05 13:47:46;;;;;;;;;;;25.40;63.70;;;;;;5033650;28;19923;-91
2022/06/05 13:50:27;;;;;;;;;;;25.60;64.00;;;;;;5036722;28;19925;-93
2022/06/05 13:53:01;;;;;;;;;;;25.70;63.90;;;;;;5035755;28;19924;-90
2022/06/05 13:55:46;;;;;;;;;;;25.80;63.90;;;;;;5032262;28;19919;-89
2022/06/05 13:58:18;;;;;;;;;;;25.80;63.70;;;;;;5034311;28;19921;-89
2022/06/05 14:00:57;;;;;;;;;;;25.80;63.40;;;;;;5035842;28;19917;-92
2022/06/05 14:03:37;;;;;;;;;;;25.80;63.40;;;;;;5034784;28;19921;-92
2022/06/05 14:06:24;;;;;;;;;;;25.80;63.10;;;;;;5036495;28;19927;-93
2022/06/05 14:08:57;;;;;;;;;;;25.80;62.80;;;;;;5036236;28;19921;-90
2022/06/05 14:11:32;;;;;;;;;;;25.80;63.00;;;;;;5034944;28;19917;-89
2022/06/05 14:14:05;;;;;;;;;;;25.80;63.00;;;;;;5047520;28;19925;-91
2022/06/05 14:16:46;;;;;;;;;;;25.80;62.20;;;;;;5034223;28;19963;-90
2022/06/05 14:19:23;;;;;;;;;;;25.80;62.10;;;;;;5051619;28;20025;-90
2022/06/05 14:21:56;;;;;;;;;;;25.80;62.50;;;;;;5032864;28;19916;-89
2022/06/05 14:24:25;;;;;;;;;;;25.90;62.50;;;;;;5032304;28;19940;-87
2022/06/05 14:26:55;;;;;;;;;;;26.00;62.20;;;;;;5036317;28;19908;-90
2022/06/05 14:29:21;;;;;;;;;;;26.00;62.30;;;;;;5033733;28;19955;-89
2022/06/05 14:32:03;;;;;;;;;;;26.10;62.20;;;;;;5051229;28;19917;-88
2022/06/05 14:34:34;;;;;;;;;;;26.10;61.90;;;;;;5038550;28;19913;-88
2022/06/05 14:37:11;;;;;;;;;;;26.10;61.70;;;;;;5032998;28;20008;-89
2022/06/05 14:39:39;;;;;;;;;;;26.10;61.60;;;;;;5034362;28;20396;-90
2022/06/05 14:42:13;;;;;;;;;;;26.10;61.20;;;;;;5032788;28;19920;-89
2022/06/05 14:44:42;;;;;;;;;;;26.10;61.10;;;;;;5032142;28;19913;-91
2022/06/05 14:47:19;;;;;;;;;;;26.10;61.30;;;;;;5028572;28;19920;-90
2022/06/05 14:49:55;;;;;;;;;;;26.10;60.70;;;;;;5031770;28;19912;-92
2022/06/05 14:52:43;;;;;;;;;;;26.10;60.70;;;;;;5057065;28;19928;-91
2022/06/05 14:58:05;;;;;;;;;;;26.00;60.30;;;;;;5053904;28;19943;-91
2022/06/05 15:00:51;;;;;;;;;;;26.00;60.50;;;;;;5036145;28;20416;-90
2022/06/05 15:03:32;;;;;;;;;;;26.00;60.90;;;;;;4995342;28;20401;-91